sensor_id;sensor_type;location;lat;lon;timestamp;P1;durP1;ratioP1;P2;durP2;ratioP2
27622;SDS011;15041;45.334;5.622;2023-12-20T00:02:18;16.53;;;11.80;;
27622;SDS011;15041;45.334;5.622;2023-12-20T00:04:46;14.07;;;11.10;;
27622;SDS011;15041;45.334;5.622;2023-12-20T00:07:13;12.10;;;9.77;;
27622;SDS011;15041;45.334;5.622;2023-12-20T00:09:40;11.20;;;9.60;;
27622;SDS011;15041;45.334;5.622;2023-12-20T00:12:07;13.43;;;9.77;;
27622;SDS011;15041;45.334;5.622;2023-12-20T00:14:36;14.77;;;11.03;;
27622;SDS011;15041;45.334;5.622;2023-12-20T00:17:03;17.67;;;12.47;;
27622;SDS011;15041;45.334;5.622;2023-12-20T00:19:31;13.20;;;10.97;;
27622;SDS011;15041;45.334;5.622;2023-12-20T00:21:58;14.57;;;10.20;;
27622;SDS011;15041;45.334;5.622;2023-12-20T00:24:25;16.17;;;11.23;;
27622;SDS011;15041;45.334;5.622;2023-12-20T00:26:53;14.27;;;10.43;;
27622;SDS011;15041;45.334;5.622;2023-12-20T00:29:20;12.27;;;9.53;;
27622;SDS011;15041;45.334;5.622;2023-12-20T00:31:48;12.07;;;9.10;;
27622;SDS011;15041;45.334;5.622;2023-12-20T00:34:15;14.27;;;11.20;;
27622;SDS011;15041;45.334;5.622;2023-12-20T00:36:42;13.17;;;10.77;;
27622;SDS011;15041;45.334;5.622;2023-12-20T00:39:10;12.87;;;9.87;;
27622;SDS011;15041;45.334;5.622;2023-12-20T00:41:37;12.37;;;9.83;;
27622;SDS011;15041;45.334;5.622;2023-12-20T00:44:04;14.40;;;10.83;;
27622;SDS011;15041;45.334;5.622;2023-12-20T00:46:31;13.77;;;10.47;;
27622;SDS011;15041;45.334;5.622;2023-12-20T00:49:00;16.80;;;12.17;;
27622;SDS011;15041;45.334;5.622;2023-12-20T00:51:27;14.67;;;11.10;;
27622;SDS011;15041;45.334;5.622;2023-12-20T00:53:54;19.33;;;12.53;;
27622;SDS011;15041;45.334;5.622;2023-12-20T00:56:21;17.53;;;13.13;;
27622;SDS011;15041;45.334;5.622;2023-12-20T00:58:49;19.17;;;13.27;;
27622;SDS011;15041;45.334;5.622;2023-12-20T01:01:17;20.33;;;14.73;;
27622;SDS011;15041;45.334;5.622;2023-12-20T01:03:44;18.10;;;13.77;;
27622;SDS011;15041;45.334;5.622;2023-12-20T01:06:12;16.23;;;12.27;;
27622;SDS011;15041;45.334;5.622;2023-12-20T01:08:41;17.00;;;11.47;;
27622;SDS011;15041;45.334;5.622;2023-12-20T01:11:08;13.83;;;10.17;;
27622;SDS011;15041;45.334;5.622;2023-12-20T01:13:35;15.17;;;10.53;;
27622;SDS011;15041;45.334;5.622;2023-12-20T01:16:02;12.60;;;9.90;;
27622;SDS011;15041;45.334;5.622;2023-12-20T01:21:35;12.07;;;9.63;;
27622;SDS011;15041;45.334;5.622;2023-12-20T01:24:02;15.53;;;10.00;;
27622;SDS011;15041;45.334;5.622;2023-12-20T01:26:29;14.07;;;11.07;;
27622;SDS011;15041;45.334;5.622;2023-12-20T01:28:57;13.17;;;10.63;;
27622;SDS011;15041;45.334;5.622;2023-12-20T01:31:24;11.80;;;10.50;;
27622;SDS011;15041;45.334;5.622;2023-12-20T01:33:53;14.83;;;10.77;;
27622;SDS011;15041;45.334;5.622;2023-12-20T01:36:21;13.00;;;11.03;;
27622;SDS011;15041;45.334;5.622;2023-12-20T01:38:50;12.83;;;11.10;;
27622;SDS011;15041;45.334;5.622;2023-12-20T01:41:17;11.33;;;9.90;;
27622;SDS011;15041;45.334;5.622;2023-12-20T01:43:44;13.37;;;10.47;;
27622;SDS011;15041;45.334;5.622;2023-12-20T01:46:11;12.33;;;10.30;;
27622;SDS011;15041;45.334;5.622;2023-12-20T01:48:39;15.03;;;10.87;;
27622;SDS011;15041;45.334;5.622;2023-12-20T01:51:06;10.83;;;9.47;;
27622;SDS011;15041;45.334;5.622;2023-12-20T01:53:33;12.77;;;10.07;;
27622;SDS011;15041;45.334;5.622;2023-12-20T01:56:03;10.73;;;8.70;;
27622;SDS011;15041;45.334;5.622;2023-12-20T01:58:31;11.63;;;8.67;;
27622;SDS011;15041;45.334;5.622;2023-12-20T02:00:58;11.87;;;8.87;;
27622;SDS011;15041;45.334;5.622;2023-12-20T02:03:26;11.10;;;8.63;;
27622;SDS011;15041;45.334;5.622;2023-12-20T02:05:53;9.03;;;7.23;;
27622;SDS011;15041;45.334;5.622;2023-12-20T02:08:21;10.97;;;8.87;;
27622;SDS011;15041;45.334;5.622;2023-12-20T02:10:48;10.33;;;8.17;;
27622;SDS011;15041;45.334;5.622;2023-12-20T02:13:17;8.50;;;7.53;;
27622;SDS011;15041;45.334;5.622;2023-12-20T02:15:44;9.57;;;8.13;;
27622;SDS011;15041;45.334;5.622;2023-12-20T02:18:11;9.60;;;7.73;;
27622;SDS011;15041;45.334;5.622;2023-12-20T02:20:40;9.50;;;7.80;;
27622;SDS011;15041;45.334;5.622;2023-12-20T02:23:09;9.47;;;7.43;;
27622;SDS011;15041;45.334;5.622;2023-12-20T02:25:36;9.47;;;7.07;;
27622;SDS011;15041;45.334;5.622;2023-12-20T02:28:03;8.10;;;6.77;;
27622;SDS011;15041;45.334;5.622;2023-12-20T02:30:32;8.33;;;7.13;;
27622;SDS011;15041;45.334;5.622;2023-12-20T02:33:02;7.03;;;6.30;;
27622;SDS011;15041;45.334;5.622;2023-12-20T02:35:34;6.80;;;6.13;;
27622;SDS011;15041;45.334;5.622;2023-12-20T02:38:02;8.40;;;6.10;;
27622;SDS011;15041;45.334;5.622;2023-12-20T02:40:31;8.83;;;6.73;;
27622;SDS011;15041;45.334;5.622;2023-12-20T02:42:58;10.00;;;6.87;;
27622;SDS011;15041;45.334;5.622;2023-12-20T02:45:26;7.23;;;6.10;;
27622;SDS011;15041;45.334;5.622;2023-12-20T02:47:53;10.47;;;7.27;;
27622;SDS011;15041;45.334;5.622;2023-12-20T02:50:20;8.00;;;7.20;;
27622;SDS011;15041;45.334;5.622;2023-12-20T02:52:48;8.33;;;7.00;;
27622;SDS011;15041;45.334;5.622;2023-12-20T02:55:15;9.27;;;7.53;;
27622;SDS011;15041;45.334;5.622;2023-12-20T02:57:44;7.40;;;6.60;;
27622;SDS011;15041;45.334;5.622;2023-12-20T03:00:11;10.30;;;6.80;;
27622;SDS011;15041;45.334;5.622;2023-12-20T03:02:39;8.10;;;6.40;;
27622;SDS011;15041;45.334;5.622;2023-12-20T03:05:06;7.80;;;6.97;;
27622;SDS011;15041;45.334;5.622;2023-12-20T03:07:34;7.83;;;5.87;;
27622;SDS011;15041;45.334;5.622;2023-12-20T03:10:04;7.37;;;6.60;;
27622;SDS011;15041;45.334;5.622;2023-12-20T03:12:33;7.47;;;5.73;;
27622;SDS011;15041;45.334;5.622;2023-12-20T03:15:01;8.17;;;5.80;;
27622;SDS011;15041;45.334;5.622;2023-12-20T03:17:28;8.47;;;6.50;;
27622;SDS011;15041;45.334;5.622;2023-12-20T03:19:55;7.33;;;6.27;;
27622;SDS011;15041;45.334;5.622;2023-12-20T03:22:22;8.27;;;6.83;;
27622;SDS011;15041;45.334;5.622;2023-12-20T03:24:50;9.00;;;6.70;;
27622;SDS011;15041;45.334;5.622;2023-12-20T03:27:17;10.63;;;7.30;;
27622;SDS011;15041;45.334;5.622;2023-12-20T03:29:44;9.63;;;6.70;;
27622;SDS011;15041;45.334;5.622;2023-12-20T03:32:12;7.87;;;6.57;;
27622;SDS011;15041;45.334;5.622;2023-12-20T03:34:39;8.40;;;6.80;;
27622;SDS011;15041;45.334;5.622;2023-12-20T03:37:07;13.03;;;7.77;;
27622;SDS011;15041;45.334;5.622;2023-12-20T03:39:34;11.20;;;7.00;;
27622;SDS011;15041;45.334;5.622;2023-12-20T03:42:01;9.10;;;6.60;;
27622;SDS011;15041;45.334;5.622;2023-12-20T03:44:28;6.83;;;6.00;;
27622;SDS011;15041;45.334;5.622;2023-12-20T03:46:55;6.87;;;5.87;;
27622;SDS011;15041;45.334;5.622;2023-12-20T03:49:24;9.97;;;5.63;;
27622;SDS011;15041;45.334;5.622;2023-12-20T03:51:51;6.93;;;6.20;;
27622;SDS011;15041;45.334;5.622;2023-12-20T03:54:18;10.40;;;7.03;;
27622;SDS011;15041;45.334;5.622;2023-12-20T03:56:45;13.43;;;7.77;;
27622;SDS011;15041;45.334;5.622;2023-12-20T03:59:12;10.13;;;7.30;;
27622;SDS011;15041;45.334;5.622;2023-12-20T04:01:42;7.97;;;6.83;;
27622;SDS011;15041;45.334;5.622;2023-12-20T04:04:09;10.33;;;7.50;;
27622;SDS011;15041;45.334;5.622;2023-12-20T04:06:38;10.03;;;7.33;;
27622;SDS011;15041;45.334;5.622;2023-12-20T04:09:06;8.30;;;7.40;;
27622;SDS011;15041;45.334;5.622;2023-12-20T04:11:34;11.90;;;8.83;;
27622;SDS011;15041;45.334;5.622;2023-12-20T04:14:01;9.07;;;7.63;;
27622;SDS011;15041;45.334;5.622;2023-12-20T04:16:30;11.00;;;7.70;;
27622;SDS011;15041;45.334;5.622;2023-12-20T04:18:57;10.73;;;8.30;;
27622;SDS011;15041;45.334;5.622;2023-12-20T04:21:24;10.57;;;7.87;;
27622;SDS011;15041;45.334;5.622;2023-12-20T04:23:53;10.63;;;7.53;;
27622;SDS011;15041;45.334;5.622;2023-12-20T04:26:20;9.87;;;7.63;;
27622;SDS011;15041;45.334;5.622;2023-12-20T04:28:48;9.10;;;7.60;;
27622;SDS011;15041;45.334;5.622;2023-12-20T04:31:16;11.40;;;7.93;;
27622;SDS011;15041;45.334;5.622;2023-12-20T04:33:43;10.33;;;7.80;;
27622;SDS011;15041;45.334;5.622;2023-12-20T04:36:10;10.07;;;7.77;;
27622;SDS011;15041;45.334;5.622;2023-12-20T04:38:37;7.77;;;6.83;;
27622;SDS011;15041;45.334;5.622;2023-12-20T04:41:06;11.30;;;8.40;;
27622;SDS011;15041;45.334;5.622;2023-12-20T04:43:33;10.57;;;7.83;;
27622;SDS011;15041;45.334;5.622;2023-12-20T04:46:00;7.40;;;6.70;;
27622;SDS011;15041;45.334;5.622;2023-12-20T04:48:27;7.93;;;7.00;;
27622;SDS011;15041;45.334;5.622;2023-12-20T04:50:54;9.77;;;7.20;;
27622;SDS011;15041;45.334;5.622;2023-12-20T04:53:22;9.83;;;7.43;;
27622;SDS011;15041;45.334;5.622;2023-12-20T04:55:49;9.97;;;7.93;;
27622;SDS011;15041;45.334;5.622;2023-12-20T04:58:18;8.03;;;7.23;;
27622;SDS011;15041;45.334;5.622;2023-12-20T05:00:45;9.93;;;8.27;;
27622;SDS011;15041;45.334;5.622;2023-12-20T05:03:12;11.77;;;8.03;;
27622;SDS011;15041;45.334;5.622;2023-12-20T05:05:39;9.07;;;7.20;;
27622;SDS011;15041;45.334;5.622;2023-12-20T05:08:06;11.70;;;8.50;;
27622;SDS011;15041;45.334;5.622;2023-12-20T05:10:33;9.90;;;7.90;;
27622;SDS011;15041;45.334;5.622;2023-12-20T05:13:02;9.77;;;8.23;;
27622;SDS011;15041;45.334;5.622;2023-12-20T05:15:30;9.63;;;8.30;;
27622;SDS011;15041;45.334;5.622;2023-12-20T05:17:57;11.37;;;8.23;;
27622;SDS011;15041;45.334;5.622;2023-12-20T05:20:25;9.37;;;7.80;;
27622;SDS011;15041;45.334;5.622;2023-12-20T05:22:52;8.97;;;8.07;;
27622;SDS011;15041;45.334;5.622;2023-12-20T05:25:19;10.57;;;9.27;;
27622;SDS011;15041;45.334;5.622;2023-12-20T05:27:46;13.80;;;9.87;;
27622;SDS011;15041;45.334;5.622;2023-12-20T05:30:14;12.20;;;10.03;;
27622;SDS011;15041;45.334;5.622;2023-12-20T05:32:43;12.13;;;9.43;;
27622;SDS011;15041;45.334;5.622;2023-12-20T05:35:10;11.17;;;9.03;;
27622;SDS011;15041;45.334;5.622;2023-12-20T05:37:37;12.10;;;9.60;;
27622;SDS011;15041;45.334;5.622;2023-12-20T05:40:05;11.20;;;9.23;;
27622;SDS011;15041;45.334;5.622;2023-12-20T05:42:35;11.33;;;9.23;;
27622;SDS011;15041;45.334;5.622;2023-12-20T05:45:03;11.97;;;8.83;;
27622;SDS011;15041;45.334;5.622;2023-12-20T05:47:31;13.00;;;9.50;;
27622;SDS011;15041;45.334;5.622;2023-12-20T05:50:00;11.87;;;9.23;;
27622;SDS011;15041;45.334;5.622;2023-12-20T05:52:27;15.87;;;10.43;;
27622;SDS011;15041;45.334;5.622;2023-12-20T05:54:54;15.17;;;9.43;;
27622;SDS011;15041;45.334;5.622;2023-12-20T05:57:23;16.20;;;10.43;;
27622;SDS011;15041;45.334;5.622;2023-12-20T05:59:50;15.63;;;10.97;;
27622;SDS011;15041;45.334;5.622;2023-12-20T06:02:17;17.10;;;10.80;;
27622;SDS011;15041;45.334;5.622;2023-12-20T06:04:45;13.87;;;10.70;;
27622;SDS011;15041;45.334;5.622;2023-12-20T06:07:13;15.67;;;10.07;;
27622;SDS011;15041;45.334;5.622;2023-12-20T06:09:41;18.30;;;10.80;;
27622;SDS011;15041;45.334;5.622;2023-12-20T06:12:08;13.80;;;9.80;;
27622;SDS011;15041;45.334;5.622;2023-12-20T06:14:36;11.03;;;9.33;;
27622;SDS011;15041;45.334;5.622;2023-12-20T06:17:04;12.87;;;10.90;;
27622;SDS011;15041;45.334;5.622;2023-12-20T06:19:31;12.23;;;10.17;;
27622;SDS011;15041;45.334;5.622;2023-12-20T06:21:58;13.40;;;10.27;;
27622;SDS011;15041;45.334;5.622;2023-12-20T06:24:26;13.37;;;10.70;;
27622;SDS011;15041;45.334;5.622;2023-12-20T06:26:54;11.00;;;9.50;;
27622;SDS011;15041;45.334;5.622;2023-12-20T06:29:21;11.43;;;9.93;;
27622;SDS011;15041;45.334;5.622;2023-12-20T06:31:48;14.40;;;9.83;;
27622;SDS011;15041;45.334;5.622;2023-12-20T06:34:15;12.57;;;9.77;;
27622;SDS011;15041;45.334;5.622;2023-12-20T06:36:42;11.07;;;9.87;;
27622;SDS011;15041;45.334;5.622;2023-12-20T06:39:09;13.07;;;11.60;;
27622;SDS011;15041;45.334;5.622;2023-12-20T06:41:39;18.67;;;13.90;;
27622;SDS011;15041;45.334;5.622;2023-12-20T06:44:06;21.60;;;14.27;;
27622;SDS011;15041;45.334;5.622;2023-12-20T06:46:33;15.53;;;12.10;;
27622;SDS011;15041;45.334;5.622;2023-12-20T06:49:00;14.63;;;11.97;;
27622;SDS011;15041;45.334;5.622;2023-12-20T06:51:27;17.27;;;11.77;;
27622;SDS011;15041;45.334;5.622;2023-12-20T06:53:56;12.97;;;11.57;;
27622;SDS011;15041;45.334;5.622;2023-12-20T06:56:23;13.17;;;10.60;;
27622;SDS011;15041;45.334;5.622;2023-12-20T06:58:51;15.37;;;11.20;;
27622;SDS011;15041;45.334;5.622;2023-12-20T07:01:19;13.27;;;11.20;;
27622;SDS011;15041;45.334;5.622;2023-12-20T07:03:46;13.17;;;10.73;;
27622;SDS011;15041;45.334;5.622;2023-12-20T07:06:13;12.13;;;10.93;;
27622;SDS011;15041;45.334;5.622;2023-12-20T07:08:41;13.10;;;11.37;;
27622;SDS011;15041;45.334;5.622;2023-12-20T07:11:08;14.40;;;11.30;;
27622;SDS011;15041;45.334;5.622;2023-12-20T07:13:36;18.03;;;12.20;;
27622;SDS011;15041;45.334;5.622;2023-12-20T07:16:04;12.47;;;10.73;;
27622;SDS011;15041;45.334;5.622;2023-12-20T07:18:32;12.70;;;11.00;;
27622;SDS011;15041;45.334;5.622;2023-12-20T07:20:59;14.47;;;11.07;;
27622;SDS011;15041;45.334;5.622;2023-12-20T07:23:27;18.77;;;11.80;;
27622;SDS011;15041;45.334;5.622;2023-12-20T07:25:54;16.17;;;12.13;;
27622;SDS011;15041;45.334;5.622;2023-12-20T07:28:21;16.17;;;12.13;;
27622;SDS011;15041;45.334;5.622;2023-12-20T07:30:48;15.30;;;13.63;;
27622;SDS011;15041;45.334;5.622;2023-12-20T07:33:17;16.50;;;11.93;;
27622;SDS011;15041;45.334;5.622;2023-12-20T07:35:44;12.70;;;11.20;;
27622;SDS011;15041;45.334;5.622;2023-12-20T07:38:11;16.33;;;11.57;;
27622;SDS011;15041;45.334;5.622;2023-12-20T07:40:38;13.60;;;11.03;;
27622;SDS011;15041;45.334;5.622;2023-12-20T07:43:06;14.20;;;11.63;;
27622;SDS011;15041;45.334;5.622;2023-12-20T07:45:33;16.50;;;12.13;;
27622;SDS011;15041;45.334;5.622;2023-12-20T07:48:00;15.87;;;12.13;;
27622;SDS011;15041;45.334;5.622;2023-12-20T07:50:28;16.00;;;12.13;;
27622;SDS011;15041;45.334;5.622;2023-12-20T07:52:56;15.63;;;12.17;;
27622;SDS011;15041;45.334;5.622;2023-12-20T07:55:25;14.73;;;12.50;;
27622;SDS011;15041;45.334;5.622;2023-12-20T07:57:52;14.43;;;12.77;;
27622;SDS011;15041;45.334;5.622;2023-12-20T08:00:19;13.20;;;11.10;;
27622;SDS011;15041;45.334;5.622;2023-12-20T08:02:46;14.63;;;11.57;;
27622;SDS011;15041;45.334;5.622;2023-12-20T08:05:13;18.33;;;11.47;;
27622;SDS011;15041;45.334;5.622;2023-12-20T08:07:42;13.53;;;11.73;;
27622;SDS011;15041;45.334;5.622;2023-12-20T08:10:10;19.60;;;11.80;;
27622;SDS011;15041;45.334;5.622;2023-12-20T08:12:37;16.70;;;11.70;;
27622;SDS011;15041;45.334;5.622;2023-12-20T08:15:05;15.27;;;11.73;;
27622;SDS011;15041;45.334;5.622;2023-12-20T08:17:33;15.80;;;12.73;;
27622;SDS011;15041;45.334;5.622;2023-12-20T08:20:00;20.70;;;12.13;;
27622;SDS011;15041;45.334;5.622;2023-12-20T08:22:27;18.40;;;12.50;;
27622;SDS011;15041;45.334;5.622;2023-12-20T08:24:56;17.47;;;11.83;;
27622;SDS011;15041;45.334;5.622;2023-12-20T08:27:23;18.47;;;10.70;;
27622;SDS011;15041;45.334;5.622;2023-12-20T08:29:51;15.70;;;10.80;;
27622;SDS011;15041;45.334;5.622;2023-12-20T08:32:18;10.73;;;9.47;;
27622;SDS011;15041;45.334;5.622;2023-12-20T08:34:45;12.17;;;9.50;;
27622;SDS011;15041;45.334;5.622;2023-12-20T08:37:12;12.67;;;10.50;;
27622;SDS011;15041;45.334;5.622;2023-12-20T08:39:39;12.30;;;9.90;;
27622;SDS011;15041;45.334;5.622;2023-12-20T08:42:08;13.70;;;11.30;;
27622;SDS011;15041;45.334;5.622;2023-12-20T08:44:35;18.27;;;11.90;;
27622;SDS011;15041;45.334;5.622;2023-12-20T08:47:02;12.43;;;11.13;;
27622;SDS011;15041;45.334;5.622;2023-12-20T08:49:30;13.80;;;10.47;;
27622;SDS011;15041;45.334;5.622;2023-12-20T08:51:57;15.07;;;10.50;;
27622;SDS011;15041;45.334;5.622;2023-12-20T08:54:24;15.13;;;10.60;;
27622;SDS011;15041;45.334;5.622;2023-12-20T08:56:51;14.50;;;11.27;;
27622;SDS011;15041;45.334;5.622;2023-12-20T08:59:20;16.93;;;12.00;;
27622;SDS011;15041;45.334;5.622;2023-12-20T09:01:47;15.83;;;10.80;;
27622;SDS011;15041;45.334;5.622;2023-12-20T09:04:19;15.07;;;10.50;;
27622;SDS011;15041;45.334;5.622;2023-12-20T09:06:46;14.43;;;10.73;;
27622;SDS011;15041;45.334;5.622;2023-12-20T09:09:13;11.80;;;9.90;;
27622;SDS011;15041;45.334;5.622;2023-12-20T09:11:41;12.63;;;11.03;;
27622;SDS011;15041;45.334;5.622;2023-12-20T09:14:08;15.03;;;10.97;;
27622;SDS011;15041;45.334;5.622;2023-12-20T09:16:37;17.27;;;10.70;;
27622;SDS011;15041;45.334;5.622;2023-12-20T09:19:04;13.40;;;11.70;;
27622;SDS011;15041;45.334;5.622;2023-12-20T09:21:31;3.77;;;3.47;;
27622;SDS011;15041;45.334;5.622;2023-12-20T09:23:58;2.60;;;2.40;;
27622;SDS011;15041;45.334;5.622;2023-12-20T09:26:25;2.17;;;2.07;;
27622;SDS011;15041;45.334;5.622;2023-12-20T09:28:52;2.20;;;2.10;;
27622;SDS011;15041;45.334;5.622;2023-12-20T09:31:19;2.83;;;2.60;;
27622;SDS011;15041;45.334;5.622;2023-12-20T09:33:48;3.17;;;2.90;;
27622;SDS011;15041;45.334;5.622;2023-12-20T09:36:16;3.33;;;3.03;;
27622;SDS011;15041;45.334;5.622;2023-12-20T09:38:43;3.73;;;3.43;;
27622;SDS011;15041;45.334;5.622;2023-12-20T09:41:10;4.17;;;3.77;;
27622;SDS011;15041;45.334;5.622;2023-12-20T09:43:37;4.40;;;4.00;;
27622;SDS011;15041;45.334;5.622;2023-12-20T09:46:05;3.90;;;3.60;;
27622;SDS011;15041;45.334;5.622;2023-12-20T09:48:33;4.23;;;3.83;;
27622;SDS011;15041;45.334;5.622;2023-12-20T09:51:04;5.93;;;4.10;;
27622;SDS011;15041;45.334;5.622;2023-12-20T09:53:31;4.40;;;4.00;;
27622;SDS011;15041;45.334;5.622;2023-12-20T09:56:03;5.00;;;4.43;;
27622;SDS011;15041;45.334;5.622;2023-12-20T09:58:32;5.20;;;4.70;;
27622;SDS011;15041;45.334;5.622;2023-12-20T10:00:59;4.50;;;4.10;;
27622;SDS011;15041;45.334;5.622;2023-12-20T10:03:29;4.90;;;4.27;;
27622;SDS011;15041;45.334;5.622;2023-12-20T10:05:57;4.80;;;4.20;;
27622;SDS011;15041;45.334;5.622;2023-12-20T10:08:28;5.13;;;4.63;;
27622;SDS011;15041;45.334;5.622;2023-12-20T10:10:57;5.20;;;4.70;;
27622;SDS011;15041;45.334;5.622;2023-12-20T10:13:28;6.17;;;5.07;;
27622;SDS011;15041;45.334;5.622;2023-12-20T10:15:55;5.53;;;5.03;;
27622;SDS011;15041;45.334;5.622;2023-12-20T10:18:22;5.67;;;5.03;;
27622;SDS011;15041;45.334;5.622;2023-12-20T10:20:50;7.77;;;5.70;;
27622;SDS011;15041;45.334;5.622;2023-12-20T10:23:17;6.80;;;5.47;;
27622;SDS011;15041;45.334;5.622;2023-12-20T10:25:52;10.20;;;6.53;;
27622;SDS011;15041;45.334;5.622;2023-12-20T10:28:23;7.37;;;6.10;;
27622;SDS011;15041;45.334;5.622;2023-12-20T10:30:53;10.90;;;7.53;;
27622;SDS011;15041;45.334;5.622;2023-12-20T10:33:25;8.60;;;6.97;;
27622;SDS011;15041;45.334;5.622;2023-12-20T10:35:52;7.70;;;6.37;;
27622;SDS011;15041;45.334;5.622;2023-12-20T10:38:20;9.23;;;6.87;;
27622;SDS011;15041;45.334;5.622;2023-12-20T10:40:47;8.20;;;6.30;;
27622;SDS011;15041;45.334;5.622;2023-12-20T10:43:17;7.47;;;6.20;;
27622;SDS011;15041;45.334;5.622;2023-12-20T10:45:44;7.60;;;6.47;;
27622;SDS011;15041;45.334;5.622;2023-12-20T10:48:11;9.57;;;7.50;;
27622;SDS011;15041;45.334;5.622;2023-12-20T10:50:38;6.60;;;5.83;;
27622;SDS011;15041;45.334;5.622;2023-12-20T10:53:07;6.93;;;6.23;;
27622;SDS011;15041;45.334;5.622;2023-12-20T10:55:35;6.60;;;5.70;;
27622;SDS011;15041;45.334;5.622;2023-12-20T10:58:04;7.40;;;6.60;;
27622;SDS011;15041;45.334;5.622;2023-12-20T11:00:36;7.07;;;5.73;;
27622;SDS011;15041;45.334;5.622;2023-12-20T11:03:06;6.83;;;6.20;;
27622;SDS011;15041;45.334;5.622;2023-12-20T11:05:38;7.67;;;6.83;;
27622;SDS011;15041;45.334;5.622;2023-12-20T11:08:14;7.07;;;6.37;;
27622;SDS011;15041;45.334;5.622;2023-12-20T11:10:49;8.70;;;7.57;;
27622;SDS011;15041;45.334;5.622;2023-12-20T11:13:25;8.60;;;7.33;;
27622;SDS011;15041;45.334;5.622;2023-12-20T11:15:58;6.90;;;6.20;;
27622;SDS011;15041;45.334;5.622;2023-12-20T11:18:28;9.40;;;6.87;;
27622;SDS011;15041;45.334;5.622;2023-12-20T11:21:00;8.43;;;7.20;;
27622;SDS011;15041;45.334;5.622;2023-12-20T11:23:29;8.47;;;7.23;;
27622;SDS011;15041;45.334;5.622;2023-12-20T11:25:57;9.60;;;7.47;;
27622;SDS011;15041;45.334;5.622;2023-12-20T11:28:25;8.30;;;6.67;;
27622;SDS011;15041;45.334;5.622;2023-12-20T11:30:55;8.17;;;6.77;;
27622;SDS011;15041;45.334;5.622;2023-12-20T11:33:26;9.03;;;7.73;;
27622;SDS011;15041;45.334;5.622;2023-12-20T11:35:56;9.60;;;7.77;;
27622;SDS011;15041;45.334;5.622;2023-12-20T11:38:25;12.07;;;9.40;;
27622;SDS011;15041;45.334;5.622;2023-12-20T11:40:53;9.30;;;7.83;;
27622;SDS011;15041;45.334;5.622;2023-12-20T11:43:30;9.23;;;7.93;;
27622;SDS011;15041;45.334;5.622;2023-12-20T11:46:06;8.10;;;7.17;;
27622;SDS011;15041;45.334;5.622;2023-12-20T11:48:35;8.40;;;7.40;;
27622;SDS011;15041;45.334;5.622;2023-12-20T11:51:08;8.33;;;7.43;;
27622;SDS011;15041;45.334;5.622;2023-12-20T11:53:36;10.00;;;8.37;;
27622;SDS011;15041;45.334;5.622;2023-12-20T11:56:04;8.67;;;7.77;;
27622;SDS011;15041;45.334;5.622;2023-12-20T11:58:32;8.60;;;6.97;;
27622;SDS011;15041;45.334;5.622;2023-12-20T12:01:00;8.63;;;7.10;;
27622;SDS011;15041;45.334;5.622;2023-12-20T12:03:29;8.40;;;7.60;;
27622;SDS011;15041;45.334;5.622;2023-12-20T12:05:56;9.23;;;7.83;;
27622;SDS011;15041;45.334;5.622;2023-12-20T12:08:26;8.87;;;7.97;;
27622;SDS011;15041;45.334;5.622;2023-12-20T12:10:53;8.70;;;7.87;;
27622;SDS011;15041;45.334;5.622;2023-12-20T12:13:20;8.83;;;8.03;;
27622;SDS011;15041;45.334;5.622;2023-12-20T12:15:48;9.40;;;8.40;;
27622;SDS011;15041;45.334;5.622;2023-12-20T12:18:15;8.60;;;7.80;;
27622;SDS011;15041;45.334;5.622;2023-12-20T12:20:44;11.47;;;8.10;;
27622;SDS011;15041;45.334;5.622;2023-12-20T12:23:11;8.23;;;7.40;;
27622;SDS011;15041;45.334;5.622;2023-12-20T12:25:39;7.03;;;6.33;;
27622;SDS011;15041;45.334;5.622;2023-12-20T12:28:06;8.30;;;6.93;;
27622;SDS011;15041;45.334;5.622;2023-12-20T12:30:34;7.17;;;6.47;;
27622;SDS011;15041;45.334;5.622;2023-12-20T12:33:01;7.03;;;6.33;;
27622;SDS011;15041;45.334;5.622;2023-12-20T12:35:29;7.17;;;6.43;;
27622;SDS011;15041;45.334;5.622;2023-12-20T12:37:58;6.57;;;5.90;;
27622;SDS011;15041;45.334;5.622;2023-12-20T12:40:28;6.03;;;5.40;;
27622;SDS011;15041;45.334;5.622;2023-12-20T12:42:55;6.40;;;5.40;;
27622;SDS011;15041;45.334;5.622;2023-12-20T12:45:22;6.20;;;5.20;;
27622;SDS011;15041;45.334;5.622;2023-12-20T12:47:50;6.03;;;5.43;;
27622;SDS011;15041;45.334;5.622;2023-12-20T12:50:20;6.07;;;5.47;;
27622;SDS011;15041;45.334;5.622;2023-12-20T12:52:47;6.87;;;5.73;;
27622;SDS011;15041;45.334;5.622;2023-12-20T12:55:16;6.27;;;5.63;;
27622;SDS011;15041;45.334;5.622;2023-12-20T12:57:43;5.67;;;5.17;;
27622;SDS011;15041;45.334;5.622;2023-12-20T13:00:11;7.00;;;6.10;;
27622;SDS011;15041;45.334;5.622;2023-12-20T13:02:39;6.10;;;5.20;;
27622;SDS011;15041;45.334;5.622;2023-12-20T13:05:07;4.73;;;4.23;;
27622;SDS011;15041;45.334;5.622;2023-12-20T13:07:35;5.63;;;5.10;;
27622;SDS011;15041;45.334;5.622;2023-12-20T13:10:03;4.93;;;4.53;;
27622;SDS011;15041;45.334;5.622;2023-12-20T13:12:32;5.23;;;4.80;;
27622;SDS011;15041;45.334;5.622;2023-12-20T13:14:59;5.73;;;4.77;;
27622;SDS011;15041;45.334;5.622;2023-12-20T13:17:27;5.60;;;4.97;;
27622;SDS011;15041;45.334;5.622;2023-12-20T13:19:54;5.77;;;5.17;;
27622;SDS011;15041;45.334;5.622;2023-12-20T13:22:21;5.90;;;5.10;;
27622;SDS011;15041;45.334;5.622;2023-12-20T13:24:48;5.93;;;4.73;;
27622;SDS011;15041;45.334;5.622;2023-12-20T13:27:16;6.10;;;4.83;;
27622;SDS011;15041;45.334;5.622;2023-12-20T13:29:44;6.37;;;5.57;;
27622;SDS011;15041;45.334;5.622;2023-12-20T13:32:11;8.17;;;6.43;;
27622;SDS011;15041;45.334;5.622;2023-12-20T13:34:39;7.90;;;6.20;;
27622;SDS011;15041;45.334;5.622;2023-12-20T13:37:06;7.63;;;5.60;;
27622;SDS011;15041;45.334;5.622;2023-12-20T13:39:33;6.00;;;5.50;;
27622;SDS011;15041;45.334;5.622;2023-12-20T13:42:01;4.83;;;4.23;;
27622;SDS011;15041;45.334;5.622;2023-12-20T13:44:28;4.03;;;3.67;;
27622;SDS011;15041;45.334;5.622;2023-12-20T13:46:57;4.03;;;3.50;;
27622;SDS011;15041;45.334;5.622;2023-12-20T13:49:25;3.50;;;3.10;;
27622;SDS011;15041;45.334;5.622;2023-12-20T13:51:53;3.90;;;3.30;;
27622;SDS011;15041;45.334;5.622;2023-12-20T13:54:22;3.93;;;3.20;;
27622;SDS011;15041;45.334;5.622;2023-12-20T13:56:49;5.47;;;3.87;;
27622;SDS011;15041;45.334;5.622;2023-12-20T13:59:16;3.63;;;3.13;;
27622;SDS011;15041;45.334;5.622;2023-12-20T14:01:43;2.60;;;2.40;;
27622;SDS011;15041;45.334;5.622;2023-12-20T14:04:12;2.43;;;2.20;;
27622;SDS011;15041;45.334;5.622;2023-12-20T14:06:39;6.47;;;3.63;;
27622;SDS011;15041;45.334;5.622;2023-12-20T14:09:07;2.50;;;2.30;;
27622;SDS011;15041;45.334;5.622;2023-12-20T14:11:37;5.57;;;2.63;;
27622;SDS011;15041;45.334;5.622;2023-12-20T14:14:06;2.53;;;2.33;;
27622;SDS011;15041;45.334;5.622;2023-12-20T14:16:33;2.27;;;2.17;;
27622;SDS011;15041;45.334;5.622;2023-12-20T14:19:01;2.70;;;2.07;;
27622;SDS011;15041;45.334;5.622;2023-12-20T14:21:30;2.90;;;2.10;;
27622;SDS011;15041;45.334;5.622;2023-12-20T14:23:57;1.93;;;1.83;;
27622;SDS011;15041;45.334;5.622;2023-12-20T14:26:24;2.67;;;2.20;;
27622;SDS011;15041;45.334;5.622;2023-12-20T14:28:53;2.63;;;2.43;;
27622;SDS011;15041;45.334;5.622;2023-12-20T14:31:20;3.03;;;2.33;;
27622;SDS011;15041;45.334;5.622;2023-12-20T14:33:49;2.63;;;2.13;;
27622;SDS011;15041;45.334;5.622;2023-12-20T14:36:18;4.10;;;2.83;;
27622;SDS011;15041;45.334;5.622;2023-12-20T14:38:47;2.00;;;1.80;;
27622;SDS011;15041;45.334;5.622;2023-12-20T14:41:15;4.07;;;2.00;;
27622;SDS011;15041;45.334;5.622;2023-12-20T14:43:43;1.90;;;1.80;;
27622;SDS011;15041;45.334;5.622;2023-12-20T14:46:10;2.00;;;1.90;;